createdAt,value
2019-05-09T00:01:54.183Z,76.99
2019-05-09T00:04:25.338Z,77.23
2019-05-09T00:06:57.379Z,77.23
2019-05-09T00:09:29.439Z,76.98
2019-05-09T00:12:03.650Z,76.96
2019-05-09T00:14:35.238Z,76.78
2019-05-09T00:17:07.606Z,76.69
2019-05-09T00:19:39.756Z,76.74
2019-05-09T00:22:13.070Z,76.65
2019-05-09T00:24:45.019Z,76.32
2019-05-09T00:27:16.945Z,76.06
2019-05-09T00:29:50.057Z,76.31
2019-05-09T00:32:30.047Z,76.36
2019-05-09T00:35:09.542Z,76.40
2019-05-09T00:37:55.257Z,76.75
2019-05-09T00:40:26.886Z,76.80
2019-05-09T00:42:58.837Z,76.92
2019-05-09T00:45:40.983Z,76.97
2019-05-09T00:48:14.304Z,76.93
2019-05-09T00:50:46.486Z,76.96
2019-05-09T00:53:18.890Z,77.09
2019-05-09T00:55:52.935Z,77.15
2019-05-09T00:58:24.450Z,77.16
2019-05-09T01:00:56.009Z,77.19
2019-05-09T01:03:27.694Z,77.26
2019-05-09T01:05:59.809Z,77.44
2019-05-09T01:08:33.511Z,77.30
2019-05-09T01:11:12.492Z,77.21
2019-05-09T01:13:39.243Z,76.96
2019-05-09T01:16:12.799Z,76.91
2019-05-09T01:18:44.454Z,77.15
2019-05-09T01:21:16.081Z,77.38
2019-05-09T01:23:47.945Z,77.26
2019-05-09T01:26:19.185Z,77.33
2019-05-09T01:28:53.802Z,77.39
2019-05-09T01:31:26.417Z,77.08
2019-05-09T01:34:08.203Z,77.21
2019-05-09T01:36:58.802Z,77.36
2019-05-09T01:39:30.754Z,77.06
2019-05-09T01:42:03.271Z,77.19
2019-05-09T01:44:35.215Z,77.06
2019-05-09T01:47:10.065Z,77.15
2019-05-09T01:49:43.189Z,76.96
2019-05-09T01:52:15.368Z,77.14
2019-05-09T01:54:48.873Z,77.03
2019-05-09T01:57:20.547Z,76.99
2019-05-09T01:59:53.305Z,77.01
2019-05-09T02:02:24.857Z,77.09
2019-05-09T02:04:56.440Z,77.24
2019-05-09T02:07:28.863Z,77.24
2019-05-09T02:10:03.239Z,77.05
2019-05-09T02:12:35.685Z,77.24
2019-05-09T02:15:16.347Z,77.47
2019-05-09T02:18:01.568Z,77.75
2019-05-09T02:20:30.118Z,77.84
2019-05-09T02:23:03.710Z,77.86
2019-05-09T02:25:35.075Z,77.83
2019-05-09T02:28:07.325Z,77.89
2019-05-09T02:30:39.700Z,77.82
2019-05-09T02:33:14.428Z,77.86
2019-05-09T02:35:55.789Z,77.83
2019-05-09T02:38:19.971Z,77.81
2019-05-09T02:40:51.189Z,78.01
2019-05-09T02:43:22.576Z,78.17
2019-05-09T02:46:00.548Z,78.27
2019-05-09T02:48:32.556Z,78.04
2019-05-09T02:51:04.086Z,78.15
2019-05-09T02:53:39.519Z,78.21
2019-05-09T02:56:10.325Z,77.95
2019-05-09T02:58:58.957Z,78.00
2019-05-09T03:01:39.344Z,77.78
2019-05-09T03:04:12.097Z,77.66
2019-05-09T03:06:44.144Z,77.65
2019-05-09T03:09:19.036Z,77.57
2019-05-09T03:11:49.396Z,77.22
2019-05-09T03:14:21.375Z,77.13
2019-05-09T03:16:52.989Z,76.92
2019-05-09T03:19:25.010Z,76.85
2019-05-09T03:22:00.538Z,77.00
2019-05-09T03:24:31.770Z,77.26
2019-05-09T03:27:08.791Z,77.36
2019-05-09T03:29:48.918Z,77.54
2019-05-09T03:32:20.865Z,77.48
2019-05-09T03:34:52.701Z,77.74
2019-05-09T03:37:24.264Z,77.87
2019-05-09T03:39:57.969Z,77.96
2019-05-09T03:42:38.040Z,77.91
2019-05-09T03:45:03.343Z,77.77
2019-05-09T03:47:47.832Z,77.73
2019-05-09T03:50:19.530Z,77.73
2019-05-09T03:52:51.339Z,76.95
2019-05-09T03:55:32.774Z,76.95
2019-05-09T03:58:11.412Z,77.30
2019-05-09T04:00:43.104Z,77.13
2019-05-09T04:03:14.803Z,77.17
2019-05-09T04:05:56.538Z,77.25
2019-05-09T04:08:22.782Z,76.91
2019-05-09T04:10:53.845Z,77.03
2019-05-09T04:13:29.558Z,77.05
2019-05-09T04:16:01.367Z,76.78
2019-05-09T04:18:33.278Z,76.58
2019-05-09T04:21:05.002Z,76.57
2019-05-09T04:23:37.854Z,76.35
2019-05-09T04:26:17.643Z,76.51
2019-05-09T04:28:49.904Z,76.23
2019-05-09T04:31:21.560Z,76.09
2019-05-09T04:33:53.806Z,75.80
2019-05-09T04:39:23.615Z,75.54
2019-05-09T04:41:54.915Z,75.28
2019-05-09T04:44:38.436Z,75.19
2019-05-09T04:47:09.549Z,75.20
2019-05-09T04:49:45.224Z,74.96
2019-05-09T04:52:13.596Z,74.87
2019-05-09T04:54:44.782Z,74.49
2019-05-09T04:57:17.880Z,74.18
2019-05-09T04:59:48.488Z,74.47
2019-05-09T05:02:32.129Z,74.22
2019-05-09T05:05:03.153Z,74.26
2019-05-09T05:07:34.881Z,74.24
2019-05-09T05:10:09.007Z,73.88
2019-05-09T05:12:39.536Z,73.64
2019-05-09T05:15:10.730Z,73.50
2019-05-09T05:17:42.279Z,73.07
2019-05-09T05:20:18.572Z,73.09
2019-05-09T05:22:55.115Z,73.34
2019-05-09T05:25:27.904Z,72.73
2019-05-09T05:28:39.652Z,72.60
2019-05-09T05:31:11.708Z,72.73
2019-05-09T05:33:59.734Z,72.68
2019-05-09T05:36:31.494Z,72.35
2019-05-09T05:39:04.854Z,72.44
2019-05-09T05:41:37.796Z,72.20
2019-05-09T05:44:11.181Z,72.17
2019-05-09T05:46:53.167Z,71.93
2019-05-09T05:49:24.728Z,71.73
2019-05-09T05:51:57.648Z,71.32
2019-05-09T05:54:29.352Z,70.80
2019-05-09T05:57:01.232Z,70.87
2019-05-09T05:59:33.164Z,70.14
2019-05-09T06:02:04.781Z,70.21
2019-05-09T06:04:38.138Z,69.91
2019-05-09T06:07:10.864Z,69.93
2019-05-09T06:09:42.709Z,69.80
2019-05-09T06:12:14.630Z,70.20
2019-05-09T06:14:48.102Z,70.33
2019-05-09T06:17:19.691Z,70.62
2019-05-09T06:19:51.347Z,70.73
2019-05-09T06:22:23.210Z,71.12
2019-05-09T06:24:54.942Z,70.45
2019-05-09T06:27:27.677Z,69.85
2019-05-09T06:29:59.519Z,69.95
2019-05-09T06:32:30.725Z,69.58
2019-05-09T06:35:02.605Z,69.88
2019-05-09T06:37:34.666Z,69.47
2019-05-09T06:42:38.098Z,68.73
2019-05-09T06:45:24.372Z,68.36
2019-05-09T06:47:58.289Z,67.97
2019-05-09T06:50:29.418Z,67.86
2019-05-09T06:53:01.065Z,67.08
2019-05-09T06:55:32.902Z,67.69
2019-05-09T06:58:23.429Z,67.96
2019-05-09T07:01:01.381Z,68.26
2019-05-09T07:03:33.214Z,67.49
2019-05-09T07:06:09.161Z,66.77
2019-05-09T07:09:09.317Z,66.16
2019-05-09T07:11:42.475Z,65.58
2019-05-09T07:14:38.279Z,65.12
2019-05-09T07:17:08.504Z,64.03
2019-05-09T07:19:43.937Z,64.64
2019-05-09T07:22:39.234Z,64.16
2019-05-09T07:25:15.084Z,64.93
2019-05-09T07:27:48.322Z,64.55
2019-05-09T07:30:31.019Z,64.61
2019-05-09T07:33:13.725Z,64.88
2019-05-09T07:35:47.437Z,64.11
2019-05-09T07:38:28.687Z,64.11
2019-05-09T07:41:01.090Z,63.34
2019-05-09T07:43:33.383Z,63.08
2019-05-09T07:46:19.030Z,62.28
2019-05-09T07:48:50.383Z,62.35
2019-05-09T07:51:22.569Z,61.96
2019-05-09T07:53:54.211Z,61.72
2019-05-09T07:56:28.471Z,60.93
2019-05-09T07:58:59.383Z,60.04
2019-05-09T08:01:31.429Z,61.19
2019-05-09T08:04:03.284Z,60.98
2019-05-09T08:06:37.814Z,61.43
2019-05-09T08:09:08.644Z,61.18
2019-05-09T08:11:39.891Z,61.86
2019-05-09T08:14:12.052Z,61.97
2019-05-09T08:16:43.911Z,62.13
2019-05-09T08:19:17.941Z,62.48
2019-05-09T08:21:49.032Z,61.56
2019-05-09T08:24:20.935Z,61.73
2019-05-09T08:26:52.598Z,60.45
2019-05-09T08:29:24.334Z,60.71
2019-05-09T08:31:58.051Z,61.23
2019-05-09T08:34:28.790Z,61.17
2019-05-09T08:37:00.335Z,60.67
2019-05-09T08:39:31.886Z,59.89
2019-05-09T08:42:02.848Z,60.24
2019-05-09T08:44:34.573Z,59.72
2019-05-09T08:47:07.885Z,59.37
2019-05-09T08:49:49.646Z,59.51
2019-05-09T08:52:20.747Z,59.91
2019-05-09T08:54:55.018Z,60.10
2019-05-09T08:57:28.841Z,59.57
2019-05-09T09:00:00.481Z,58.23
2019-05-09T09:02:32.189Z,56.65
2019-05-09T09:05:03.753Z,54.60
2019-05-09T09:07:37.929Z,54.11
2019-05-09T09:10:09.160Z,54.52
2019-05-09T09:12:40.822Z,54.14
2019-05-09T09:15:12.250Z,54.25
2019-05-09T09:17:44.536Z,53.25
2019-05-09T09:20:18.010Z,52.14
2019-05-09T09:22:48.272Z,51.10
2019-05-09T09:25:19.793Z,49.76
2019-05-09T09:27:52.043Z,48.73
2019-05-09T09:30:25.170Z,49.21
2019-05-09T09:32:58.628Z,48.27
2019-05-09T09:35:29.281Z,48.55
2019-05-09T09:38:00.766Z,50.57
2019-05-09T09:40:32.931Z,48.90
2019-05-09T09:43:04.149Z,48.05
2019-05-09T09:45:37.766Z,48.14
2019-05-09T09:48:09.445Z,47.99
2019-05-09T09:50:41.136Z,49.83
2019-05-09T09:53:12.359Z,48.86
2019-05-09T09:55:44.165Z,49.84
2019-05-09T09:58:15.495Z,48.97
2019-05-09T10:01:10.740Z,49.60
2019-05-09T10:03:42.466Z,48.30
2019-05-09T10:06:14.010Z,47.05
2019-05-09T10:08:48.841Z,46.69
2019-05-09T10:11:20.886Z,48.56
2019-05-09T10:13:52.791Z,50.45
2019-05-09T10:16:47.774Z,50.02
2019-05-09T10:19:31.427Z,49.51
2019-05-09T10:22:04.097Z,47.77
2019-05-09T10:24:35.472Z,48.00
2019-05-09T10:27:09.790Z,48.00
2019-05-09T10:29:41.329Z,44.94
2019-05-09T10:32:14.057Z,45.70
2019-05-09T10:34:48.543Z,45.41
2019-05-09T10:37:19.312Z,45.85
2019-05-09T10:39:51.402Z,45.63
2019-05-09T10:42:48.455Z,46.16
2019-05-09T10:45:49.393Z,45.58
2019-05-09T10:48:23.939Z,45.90
2019-05-09T10:50:55.066Z,47.91
2019-05-09T10:53:28.401Z,45.92
2019-05-09T10:56:00.213Z,46.69
2019-05-09T10:58:31.634Z,46.72
2019-05-09T11:01:03.430Z,44.78
2019-05-09T11:03:34.673Z,43.03
2019-05-09T11:06:08.633Z,42.46
2019-05-09T11:08:40.335Z,42.09
2019-05-09T11:11:11.806Z,41.55
2019-05-09T11:13:42.857Z,43.69
2019-05-09T11:16:14.879Z,42.00
2019-05-09T11:18:48.283Z,41.00
2019-05-09T11:21:19.947Z,41.25
2019-05-09T11:23:51.508Z,40.84
2019-05-09T11:26:23.139Z,41.98
2019-05-09T11:28:58.493Z,40.40
2019-05-09T11:31:29.923Z,39.58
2019-05-09T11:34:01.994Z,39.33
2019-05-09T11:36:34.192Z,42.75
2019-05-09T11:39:10.282Z,44.75
2019-05-09T11:41:40.056Z,44.89
2019-05-09T11:44:12.002Z,42.09
2019-05-09T11:46:43.853Z,41.85
2019-05-09T11:49:18.041Z,41.92
2019-05-09T11:51:48.760Z,41.54
2019-05-09T11:54:20.705Z,42.25
2019-05-09T11:56:52.833Z,40.99
2019-05-09T11:59:25.068Z,41.68
2019-05-09T12:01:58.680Z,41.32
2019-05-09T12:04:31.400Z,40.27
2019-05-09T12:07:03.272Z,41.10
2019-05-09T12:09:34.779Z,41.75
2019-05-09T12:12:06.388Z,42.71
2019-05-09T12:14:38.306Z,43.45
2019-05-09T12:17:11.396Z,43.23
2019-05-09T12:19:42.964Z,42.74
2019-05-09T12:22:14.698Z,43.00
2019-05-09T12:24:48.135Z,42.41
2019-05-09T12:27:19.552Z,41.30
2019-05-09T12:29:51.106Z,39.50
2019-05-09T12:32:22.577Z,39.74
2019-05-09T12:34:54.445Z,40.15
2019-05-09T12:37:25.399Z,41.92
2019-05-09T12:39:58.568Z,40.59
2019-05-09T12:42:30.241Z,40.31
2019-05-09T12:45:01.866Z,41.22
2019-05-09T12:47:33.410Z,39.94
2019-05-09T12:50:05.262Z,41.03
2019-05-09T12:52:44.013Z,42.62
2019-05-09T12:55:17.843Z,42.50
2019-05-09T12:57:50.223Z,42.99
2019-05-09T13:00:23.589Z,42.96
2019-05-09T13:02:59.229Z,42.39
2019-05-09T13:05:30.153Z,42.17
2019-05-09T13:08:02.016Z,41.76
2019-05-09T13:10:33.950Z,42.57
2019-05-09T13:13:08.762Z,42.80
2019-05-09T13:15:45.854Z,42.88
2019-05-09T13:18:24.530Z,43.00
2019-05-09T13:20:50.862Z,41.58
2019-05-09T13:23:22.535Z,40.80
2019-05-09T13:25:54.324Z,39.60
2019-05-09T13:28:25.797Z,39.46
2019-05-09T13:30:58.468Z,37.94
2019-05-09T13:33:31.191Z,39.06
2019-05-09T13:36:02.929Z,37.65
2019-05-09T13:38:34.570Z,38.81
2019-05-09T13:41:08.536Z,39.83
2019-05-09T13:43:47.365Z,39.50
2019-05-09T13:46:12.772Z,39.48
2019-05-09T13:49:04.581Z,38.46
2019-05-09T13:51:18.425Z,36.38
2019-05-09T13:53:51.601Z,36.88
2019-05-09T13:56:22.914Z,37.14
2019-05-09T13:58:54.427Z,36.33
2019-05-09T14:01:25.704Z,37.70
2019-05-09T14:03:58.562Z,36.77
2019-05-09T14:06:30.104Z,36.18
2019-05-09T14:09:01.797Z,37.25
2019-05-09T14:11:34.940Z,38.34
2019-05-09T14:14:06.368Z,39.32
2019-05-09T14:16:38.873Z,38.85
2019-05-09T14:19:29.896Z,39.49
2019-05-09T14:21:44.182Z,38.71
2019-05-09T14:24:19.025Z,37.61
2019-05-09T14:26:49.327Z,38.40
2019-05-09T14:29:21.864Z,39.83
2019-05-09T14:31:53.644Z,40.44
2019-05-09T14:34:25.314Z,41.40
2019-05-09T14:36:58.594Z,40.92
2019-05-09T14:39:31.480Z,40.64
2019-05-09T14:42:03.156Z,40.00
2019-05-09T14:44:34.954Z,40.17
2019-05-09T14:47:08.103Z,39.81
2019-05-09T14:49:44.253Z,39.96
2019-05-09T14:52:13.907Z,39.68
2019-05-09T14:54:48.240Z,39.23
2019-05-09T14:57:19.057Z,39.42
2019-05-09T14:59:50.611Z,38.73
2019-05-09T15:02:22.013Z,38.20
2019-05-09T15:04:54.135Z,38.75
2019-05-09T15:07:28.391Z,39.61
2019-05-09T15:10:00.015Z,39.56
2019-05-09T15:12:32.318Z,39.76
2019-05-09T15:15:03.407Z,40.06
2019-05-09T15:17:35.333Z,41.04
2019-05-09T15:20:08.914Z,40.88
2019-05-09T15:22:40.379Z,40.24
2019-05-09T15:25:12.410Z,40.11
2019-05-09T15:27:44.622Z,40.06
2019-05-09T15:30:18.497Z,41.42
2019-05-09T15:32:51.973Z,42.17
2019-05-09T15:35:23.972Z,42.73
2019-05-09T15:37:55.834Z,42.34
2019-05-09T15:40:28.258Z,44.88
2019-05-09T15:43:00.173Z,45.11
2019-05-09T15:45:35.720Z,46.57
2019-05-09T15:48:07.758Z,45.23
2019-05-09T15:50:39.665Z,46.02
2019-05-09T15:53:11.695Z,46.86
2019-05-09T15:55:43.494Z,46.71
2019-05-09T15:58:15.077Z,46.45
2019-05-09T16:00:49.811Z,45.89
2019-05-09T16:03:21.985Z,46.57
2019-05-09T16:05:53.633Z,46.80
2019-05-09T16:08:25.490Z,45.98
2019-05-09T16:10:58.124Z,46.05
2019-05-09T16:13:30.037Z,46.32
2019-05-09T16:16:01.925Z,45.65
2019-05-09T16:18:33.493Z,45.58
2019-05-09T16:21:05.128Z,45.39
2019-05-09T16:23:38.102Z,44.92
2019-05-09T16:26:09.668Z,44.97
2019-05-09T16:28:41.538Z,45.67
2019-05-09T16:31:13.414Z,46.52
2019-05-09T16:33:47.612Z,46.47
2019-05-09T16:36:18.836Z,46.79
2019-05-09T16:38:51.074Z,47.17
2019-05-09T16:41:23.380Z,47.08
2019-05-09T16:43:54.668Z,46.53
2019-05-09T16:46:28.663Z,45.89
2019-05-09T16:49:00.722Z,45.94
2019-05-09T16:51:33.964Z,46.04
2019-05-09T16:54:07.439Z,46.63
2019-05-09T16:56:38.679Z,46.37
2019-05-09T16:59:10.598Z,46.26
2019-05-09T17:01:47.651Z,46.12
2019-05-09T17:04:19.161Z,45.82
2019-05-09T17:06:51.096Z,45.90
2019-05-09T17:09:23.519Z,45.93
2019-05-09T17:11:57.739Z,46.12
2019-05-09T17:14:28.635Z,45.92
2019-05-09T17:17:01.086Z,46.38
2019-05-09T17:19:33.167Z,45.97
2019-05-09T17:22:30.096Z,46.15
2019-05-09T17:25:02.500Z,46.59
2019-05-09T17:27:33.874Z,46.60
2019-05-09T17:30:08.497Z,46.23
2019-05-09T17:32:39.765Z,47.05
2019-05-09T17:35:11.365Z,46.85
2019-05-09T17:37:43.217Z,47.34
2019-05-09T17:40:19.053Z,47.85
2019-05-09T17:42:49.122Z,47.64
2019-05-09T17:45:20.786Z,47.89
2019-05-09T17:47:52.380Z,47.03
2019-05-09T17:50:23.687Z,47.21
2019-05-09T17:52:57.793Z,46.92
2019-05-09T17:55:29.398Z,47.12
2019-05-09T17:58:01.114Z,47.12
2019-05-09T18:00:33.333Z,46.90
2019-05-09T18:03:05.276Z,47.18
2019-05-09T18:05:39.005Z,47.51
2019-05-09T18:08:11.666Z,47.45
2019-05-09T18:10:43.554Z,47.40
2019-05-09T18:13:15.091Z,48.12
2019-05-09T18:15:48.329Z,48.68
2019-05-09T18:18:19.918Z,48.56
2019-05-09T18:20:51.852Z,48.64
2019-05-09T18:23:24.165Z,48.52
2019-05-09T18:25:58.616Z,48.98
2019-05-09T18:28:31.475Z,48.89
2019-05-09T18:31:03.346Z,49.06
2019-05-09T18:33:42.030Z,49.21
2019-05-09T18:36:13.549Z,49.43
2019-05-09T18:38:44.797Z,49.32
2019-05-09T18:41:17.850Z,49.85
2019-05-09T18:43:49.902Z,49.66
2019-05-09T18:46:21.785Z,49.80
2019-05-09T18:48:53.011Z,50.10
2019-05-09T18:51:28.350Z,50.21
2019-05-09T18:53:58.498Z,50.09
2019-05-09T18:56:30.244Z,51.15
2019-05-09T18:59:19.428Z,51.16
2019-05-09T19:01:51.985Z,51.07
2019-05-09T19:04:24.179Z,51.32
2019-05-09T19:06:56.114Z,51.22
2019-05-09T19:09:27.125Z,51.91
2019-05-09T19:11:59.309Z,52.25
2019-05-09T19:14:31.916Z,52.62
2019-05-09T19:17:38.648Z,52.35
2019-05-09T19:20:26.699Z,52.73
2019-05-09T19:22:58.582Z,52.50
2019-05-09T19:25:30.769Z,52.75
2019-05-09T19:28:03.692Z,52.99
2019-05-09T19:30:35.409Z,53.14
2019-05-09T19:33:06.552Z,53.14
2019-05-09T19:35:38.527Z,52.10
2019-05-09T19:38:10.149Z,53.91
2019-05-09T19:40:41.788Z,54.21
2019-05-09T19:43:13.111Z,53.05
2019-05-09T19:45:45.069Z,53.70
2019-05-09T19:48:16.957Z,53.55
2019-05-09T19:50:48.618Z,53.07
2019-05-09T19:53:20.573Z,52.61
2019-05-09T19:55:52.376Z,52.53
2019-05-09T19:58:24.078Z,51.93
2019-05-09T20:00:56.290Z,52.21
2019-05-09T20:03:29.006Z,53.40
2019-05-09T20:06:00.340Z,53.16
2019-05-09T20:08:34.248Z,52.67
2019-05-09T20:11:23.200Z,54.10
2019-05-09T20:14:13.505Z,54.00
2019-05-09T20:16:47.852Z,54.58
2019-05-09T20:19:19.881Z,54.49
2019-05-09T20:21:51.295Z,54.47
2019-05-09T20:24:23.174Z,54.71
2019-05-09T20:26:55.867Z,54.69
2019-05-09T20:29:30.303Z,55.41
2019-05-09T20:32:02.661Z,54.68
2019-05-09T20:34:34.522Z,54.86
2019-05-09T20:37:05.815Z,55.17
2019-05-09T20:39:37.843Z,55.11
2019-05-09T20:42:10.004Z,55.35
2019-05-09T20:44:41.742Z,55.38
2019-05-09T20:47:13.558Z,55.59
2019-05-09T20:49:45.501Z,55.27
2019-05-09T20:52:21.381Z,55.16
2019-05-09T20:54:51.808Z,55.61
2019-05-09T20:57:24.814Z,54.91
2019-05-09T20:59:56.950Z,54.95
2019-05-09T21:02:29.445Z,54.81
2019-05-09T21:05:01.434Z,54.70
2019-05-09T21:07:33.314Z,55.25
2019-05-09T21:10:05.305Z,55.12
2019-05-09T21:12:38.689Z,55.41
2019-05-09T21:15:10.390Z,55.86
2019-05-09T21:17:42.606Z,55.56
2019-05-09T21:20:14.862Z,55.66
2019-05-09T21:22:46.944Z,56.05
2019-05-09T21:25:18.887Z,55.98
2019-05-09T21:27:51.158Z,56.13
2019-05-09T21:30:23.037Z,56.55
2019-05-09T21:32:54.593Z,56.74
2019-05-09T21:35:25.872Z,57.05
2019-05-09T21:37:57.537Z,56.97
2019-05-09T21:40:30.063Z,56.57
2019-05-09T21:43:01.945Z,56.35
2019-05-09T21:45:33.786Z,56.51
2019-05-09T21:48:05.550Z,56.83
2019-05-09T21:50:37.508Z,57.49
2019-05-09T21:53:08.962Z,57.18
2019-05-09T21:55:41.738Z,57.70
2019-05-09T21:58:13.654Z,57.63
2019-05-09T22:00:47.156Z,57.89
2019-05-09T22:03:20.608Z,57.72
2019-05-09T22:05:52.141Z,58.22
2019-05-09T22:08:23.790Z,58.50
2019-05-09T22:10:55.943Z,58.73
2019-05-09T22:13:27.615Z,59.15
2019-05-09T22:15:59.292Z,59.42
2019-05-09T22:18:31.091Z,58.75
2019-05-09T22:21:02.890Z,59.12
2019-05-09T22:23:34.768Z,59.25
2019-05-09T22:26:06.604Z,58.75
2019-05-09T22:28:38.872Z,58.75
2019-05-09T22:31:10.440Z,58.58
2019-05-09T22:33:42.578Z,58.69
2019-05-09T22:36:14.401Z,58.96
2019-05-09T22:38:46.326Z,58.96
2019-05-09T22:41:17.867Z,58.93
2019-05-09T22:43:49.508Z,58.48
2019-05-09T22:46:22.507Z,58.62
2019-05-09T22:48:54.669Z,58.43
2019-05-09T22:51:26.556Z,59.17
2019-05-09T22:54:11.467Z,59.76
2019-05-09T22:56:32.172Z,59.84
2019-05-09T22:59:04.007Z,60.09
2019-05-09T23:01:36.123Z,59.98
2019-05-09T23:04:07.471Z,60.28
2019-05-09T23:06:39.324Z,60.21
2019-05-09T23:09:11.187Z,60.07
2019-05-09T23:11:42.843Z,60.35
2019-05-09T23:14:14.393Z,60.38
2019-05-09T23:16:50.074Z,60.16
2019-05-09T23:19:20.921Z,60.61
2019-05-09T23:21:52.944Z,60.75
2019-05-09T23:24:28.474Z,60.80
2019-05-09T23:26:58.878Z,60.94
2019-05-09T23:29:32.143Z,61.48
2019-05-09T23:32:13.085Z,61.60
2019-05-09T23:34:44.734Z,62.12
2019-05-09T23:37:16.906Z,62.12
2019-05-09T23:39:49.014Z,61.94
2019-05-09T23:42:20.555Z,62.16
2019-05-09T23:44:52.496Z,61.99
2019-05-09T23:47:24.520Z,62.04
2019-05-09T23:49:56.466Z,62.22
2019-05-09T23:52:27.963Z,62.27
2019-05-09T23:55:17.456Z,62.47
2019-05-09T23:58:06.870Z,62.70
